sensor_id;sensor_type;location;lat;lon;timestamp;temperature;humidity
21646;DHT22;10984;45.712;4.800;2023-06-19T00:01:54;22.80;1.00
21646;DHT22;10984;45.712;4.800;2023-06-19T00:04:20;22.80;1.00
21646;DHT22;10984;45.712;4.800;2023-06-19T00:06:46;22.80;1.00
21646;DHT22;10984;45.712;4.800;2023-06-19T00:09:11;22.70;1.00
21646;DHT22;10984;45.712;4.800;2023-06-19T00:11:37;22.70;1.00
21646;DHT22;10984;45.712;4.800;2023-06-19T00:14:03;22.80;1.00
21646;DHT22;10984;45.712;4.800;2023-06-19T00:16:28;22.70;1.00
21646;DHT22;10984;45.712;4.800;2023-06-19T00:18:54;22.70;1.00
21646;DHT22;10984;45.712;4.800;2023-06-19T00:21:22;22.70;1.00
21646;DHT22;10984;45.712;4.800;2023-06-19T00:23:50;22.70;1.00
21646;DHT22;10984;45.712;4.800;2023-06-19T00:26:16;22.70;1.00
21646;DHT22;10984;45.712;4.800;2023-06-19T00:28:42;22.60;1.00
21646;DHT22;10984;45.712;4.800;2023-06-19T00:31:09;22.60;1.00
21646;DHT22;10984;45.712;4.800;2023-06-19T00:33:37;22.60;1.00
21646;DHT22;10984;45.712;4.800;2023-06-19T00:36:09;22.50;1.00
21646;DHT22;10984;45.712;4.800;2023-06-19T00:38:35;22.50;1.00
21646;DHT22;10984;45.712;4.800;2023-06-19T00:41:01;22.40;1.00
21646;DHT22;10984;45.712;4.800;2023-06-19T00:43:26;22.40;1.00
21646;DHT22;10984;45.712;4.800;2023-06-19T00:45:52;22.30;1.00
21646;DHT22;10984;45.712;4.800;2023-06-19T00:48:18;22.30;1.00
21646;DHT22;10984;45.712;4.800;2023-06-19T00:50:44;22.20;1.00
21646;DHT22;10984;45.712;4.800;2023-06-19T00:53:09;22.20;1.00
21646;DHT22;10984;45.712;4.800;2023-06-19T00:55:36;22.20;1.00
21646;DHT22;10984;45.712;4.800;2023-06-19T00:58:02;22.10;1.00
21646;DHT22;10984;45.712;4.800;2023-06-19T01:00:28;22.10;1.00
21646;DHT22;10984;45.712;4.800;2023-06-19T01:02:54;22.10;1.00
21646;DHT22;10984;45.712;4.800;2023-06-19T01:05:19;22.10;1.00
21646;DHT22;10984;45.712;4.800;2023-06-19T01:10:51;22.00;1.00
21646;DHT22;10984;45.712;4.800;2023-06-19T01:16:04;21.90;1.00
21646;DHT22;10984;45.712;4.800;2023-06-19T01:18:31;21.90;1.00
21646;DHT22;10984;45.712;4.800;2023-06-19T01:21:12;21.90;1.00
21646;DHT22;10984;45.712;4.800;2023-06-19T01:23:40;21.90;1.00
21646;DHT22;10984;45.712;4.800;2023-06-19T01:26:06;21.80;1.00
21646;DHT22;10984;45.712;4.800;2023-06-19T01:34:20;21.70;1.00
21646;DHT22;10984;45.712;4.800;2023-06-19T01:37:05;21.70;1.00
21646;DHT22;10984;45.712;4.800;2023-06-19T01:39:32;21.60;1.00
21646;DHT22;10984;45.712;4.800;2023-06-19T01:41:59;21.60;1.00
21646;DHT22;10984;45.712;4.800;2023-06-19T01:44:25;21.60;1.00
21646;DHT22;10984;45.712;4.800;2023-06-19T01:46:51;21.60;1.00
21646;DHT22;10984;45.712;4.800;2023-06-19T01:49:17;21.50;1.00
21646;DHT22;10984;45.712;4.800;2023-06-19T01:51:43;21.50;1.00
21646;DHT22;10984;45.712;4.800;2023-06-19T01:54:09;21.50;1.00
21646;DHT22;10984;45.712;4.800;2023-06-19T01:56:34;21.50;1.00
21646;DHT22;10984;45.712;4.800;2023-06-19T01:59:00;21.50;1.00
21646;DHT22;10984;45.712;4.800;2023-06-19T02:01:26;21.50;1.00
21646;DHT22;10984;45.712;4.800;2023-06-19T02:03:52;21.50;1.90
21646;DHT22;10984;45.712;4.800;2023-06-19T02:06:17;21.50;17.70
21646;DHT22;10984;45.712;4.800;2023-06-19T02:08:44;21.50;21.00
21646;DHT22;10984;45.712;4.800;2023-06-19T02:11:09;21.40;15.10
21646;DHT22;10984;45.712;4.800;2023-06-19T02:13:35;21.40;27.80
21646;DHT22;10984;45.712;4.800;2023-06-19T02:16:00;21.40;59.60
21646;DHT22;10984;45.712;4.800;2023-06-19T02:18:26;21.40;78.40
21646;DHT22;10984;45.712;4.800;2023-06-19T02:20:52;21.40;95.60
21646;DHT22;10984;45.712;4.800;2023-06-19T02:23:17;21.40;96.20
21646;DHT22;10984;45.712;4.800;2023-06-19T02:25:43;21.30;99.90
21646;DHT22;10984;45.712;4.800;2023-06-19T02:28:09;21.30;99.90
21646;DHT22;10984;45.712;4.800;2023-06-19T02:30:34;21.30;99.90
21646;DHT22;10984;45.712;4.800;2023-06-19T02:33:00;21.30;99.90
21646;DHT22;10984;45.712;4.800;2023-06-19T02:35:26;21.30;99.90
21646;DHT22;10984;45.712;4.800;2023-06-19T02:37:52;21.30;99.90
21646;DHT22;10984;45.712;4.800;2023-06-19T02:40:17;21.20;99.90
21646;DHT22;10984;45.712;4.800;2023-06-19T02:42:43;21.20;99.90
21646;DHT22;10984;45.712;4.800;2023-06-19T02:45:09;21.20;99.90
21646;DHT22;10984;45.712;4.800;2023-06-19T02:47:35;21.20;99.90
21646;DHT22;10984;45.712;4.800;2023-06-19T02:50:02;21.20;99.90
21646;DHT22;10984;45.712;4.800;2023-06-19T02:52:29;21.20;99.90
21646;DHT22;10984;45.712;4.800;2023-06-19T02:54:55;21.20;99.90
21646;DHT22;10984;45.712;4.800;2023-06-19T02:57:21;21.20;99.90
21646;DHT22;10984;45.712;4.800;2023-06-19T02:59:46;21.20;99.90
21646;DHT22;10984;45.712;4.800;2023-06-19T03:02:12;21.20;99.90
21646;DHT22;10984;45.712;4.800;2023-06-19T03:04:39;21.20;99.90
21646;DHT22;10984;45.712;4.800;2023-06-19T03:07:06;21.10;99.90
21646;DHT22;10984;45.712;4.800;2023-06-19T03:09:32;21.10;99.90
21646;DHT22;10984;45.712;4.800;2023-06-19T03:11:58;21.10;99.90
21646;DHT22;10984;45.712;4.800;2023-06-19T03:14:23;21.20;99.90
21646;DHT22;10984;45.712;4.800;2023-06-19T03:16:49;21.10;99.90
21646;DHT22;10984;45.712;4.800;2023-06-19T03:19:15;21.10;99.90
21646;DHT22;10984;45.712;4.800;2023-06-19T03:21:40;21.10;99.90
21646;DHT22;10984;45.712;4.800;2023-06-19T03:24:06;21.00;99.90
21646;DHT22;10984;45.712;4.800;2023-06-19T03:26:32;21.00;99.90
21646;DHT22;10984;45.712;4.800;2023-06-19T03:28:58;21.00;99.90
21646;DHT22;10984;45.712;4.800;2023-06-19T03:31:23;20.90;99.90
21646;DHT22;10984;45.712;4.800;2023-06-19T03:33:49;20.90;99.90
21646;DHT22;10984;45.712;4.800;2023-06-19T03:36:14;20.80;1.00
21646;DHT22;10984;45.712;4.800;2023-06-19T03:38:40;20.80;1.00
21646;DHT22;10984;45.712;4.800;2023-06-19T03:41:06;20.80;1.00
21646;DHT22;10984;45.712;4.800;2023-06-19T03:43:31;20.80;1.00
21646;DHT22;10984;45.712;4.800;2023-06-19T03:45:57;20.80;1.00
21646;DHT22;10984;45.712;4.800;2023-06-19T03:48:22;20.80;1.00
21646;DHT22;10984;45.712;4.800;2023-06-19T03:50:48;20.80;1.00
21646;DHT22;10984;45.712;4.800;2023-06-19T03:53:14;20.80;1.00
21646;DHT22;10984;45.712;4.800;2023-06-19T03:55:39;20.80;1.00
21646;DHT22;10984;45.712;4.800;2023-06-19T03:58:05;20.80;1.00
21646;DHT22;10984;45.712;4.800;2023-06-19T04:00:31;20.80;1.00
21646;DHT22;10984;45.712;4.800;2023-06-19T04:02:57;20.80;1.00
21646;DHT22;10984;45.712;4.800;2023-06-19T04:05:23;20.80;1.00
21646;DHT22;10984;45.712;4.800;2023-06-19T04:07:49;20.80;1.00
21646;DHT22;10984;45.712;4.800;2023-06-19T04:10:14;20.80;1.00
21646;DHT22;10984;45.712;4.800;2023-06-19T04:12:40;20.80;1.00
21646;DHT22;10984;45.712;4.800;2023-06-19T04:15:09;20.80;1.00
21646;DHT22;10984;45.712;4.800;2023-06-19T04:17:35;20.80;1.00
21646;DHT22;10984;45.712;4.800;2023-06-19T04:20:01;20.70;1.00
21646;DHT22;10984;45.712;4.800;2023-06-19T04:22:26;20.70;1.00
21646;DHT22;10984;45.712;4.800;2023-06-19T04:24:52;20.70;1.00
21646;DHT22;10984;45.712;4.800;2023-06-19T04:27:18;20.70;1.00
21646;DHT22;10984;45.712;4.800;2023-06-19T04:29:44;20.70;1.00
21646;DHT22;10984;45.712;4.800;2023-06-19T04:32:09;20.70;1.00
21646;DHT22;10984;45.712;4.800;2023-06-19T04:34:54;20.70;1.00
21646;DHT22;10984;45.712;4.800;2023-06-19T04:37:19;20.70;1.00
21646;DHT22;10984;45.712;4.800;2023-06-19T04:39:46;20.70;1.00
21646;DHT22;10984;45.712;4.800;2023-06-19T04:42:16;20.70;1.00
21646;DHT22;10984;45.712;4.800;2023-06-19T04:45:00;20.70;1.00
21646;DHT22;10984;45.712;4.800;2023-06-19T04:47:26;20.70;99.90
21646;DHT22;10984;45.712;4.800;2023-06-19T04:49:51;20.70;1.00
21646;DHT22;10984;45.712;4.800;2023-06-19T04:52:17;20.70;1.00
21646;DHT22;10984;45.712;4.800;2023-06-19T04:54:44;20.80;1.00
21646;DHT22;10984;45.712;4.800;2023-06-19T04:57:09;20.80;1.00
21646;DHT22;10984;45.712;4.800;2023-06-19T04:59:35;20.80;1.00
21646;DHT22;10984;45.712;4.800;2023-06-19T05:02:02;20.80;1.00
21646;DHT22;10984;45.712;4.800;2023-06-19T05:04:27;20.80;1.00
21646;DHT22;10984;45.712;4.800;2023-06-19T05:06:55;20.80;1.00
21646;DHT22;10984;45.712;4.800;2023-06-19T05:09:21;20.90;1.00
21646;DHT22;10984;45.712;4.800;2023-06-19T05:11:46;20.90;1.00
21646;DHT22;10984;45.712;4.800;2023-06-19T05:14:12;20.90;1.00
21646;DHT22;10984;45.712;4.800;2023-06-19T05:16:39;20.90;1.00
21646;DHT22;10984;45.712;4.800;2023-06-19T05:19:05;20.90;1.00
21646;DHT22;10984;45.712;4.800;2023-06-19T05:21:31;20.90;99.90
21646;DHT22;10984;45.712;4.800;2023-06-19T05:23:56;20.90;99.90
21646;DHT22;10984;45.712;4.800;2023-06-19T05:26:22;20.90;99.90
21646;DHT22;10984;45.712;4.800;2023-06-19T05:28:48;20.90;1.00
21646;DHT22;10984;45.712;4.800;2023-06-19T05:31:14;21.00;1.00
21646;DHT22;10984;45.712;4.800;2023-06-19T05:33:41;21.00;1.00
21646;DHT22;10984;45.712;4.800;2023-06-19T05:36:07;21.10;1.00
21646;DHT22;10984;45.712;4.800;2023-06-19T05:38:32;21.10;1.00
21646;DHT22;10984;45.712;4.800;2023-06-19T05:40:58;21.10;1.00
21646;DHT22;10984;45.712;4.800;2023-06-19T05:43:25;21.10;1.00
21646;DHT22;10984;45.712;4.800;2023-06-19T05:45:51;21.20;1.00
21646;DHT22;10984;45.712;4.800;2023-06-19T05:48:17;21.20;1.00
21646;DHT22;10984;45.712;4.800;2023-06-19T05:50:43;21.20;1.00
21646;DHT22;10984;45.712;4.800;2023-06-19T05:53:08;21.30;1.00
21646;DHT22;10984;45.712;4.800;2023-06-19T05:55:34;21.30;1.00
21646;DHT22;10984;45.712;4.800;2023-06-19T05:58:00;21.40;1.00
21646;DHT22;10984;45.712;4.800;2023-06-19T06:00:26;21.50;1.00
21646;DHT22;10984;45.712;4.800;2023-06-19T06:02:52;21.50;1.00
21646;DHT22;10984;45.712;4.800;2023-06-19T06:05:18;21.50;1.00
21646;DHT22;10984;45.712;4.800;2023-06-19T06:07:46;21.50;1.00
21646;DHT22;10984;45.712;4.800;2023-06-19T06:10:11;21.60;1.00
21646;DHT22;10984;45.712;4.800;2023-06-19T06:12:37;21.50;1.00
21646;DHT22;10984;45.712;4.800;2023-06-19T06:15:05;21.50;1.00
21646;DHT22;10984;45.712;4.800;2023-06-19T06:17:31;21.50;1.00
21646;DHT22;10984;45.712;4.800;2023-06-19T06:19:56;21.50;1.00
21646;DHT22;10984;45.712;4.800;2023-06-19T06:22:22;21.40;1.00
21646;DHT22;10984;45.712;4.800;2023-06-19T06:24:48;21.40;1.00
21646;DHT22;10984;45.712;4.800;2023-06-19T06:27:13;21.40;1.00
21646;DHT22;10984;45.712;4.800;2023-06-19T06:29:39;21.40;1.00
21646;DHT22;10984;45.712;4.800;2023-06-19T06:32:06;21.40;1.00
21646;DHT22;10984;45.712;4.800;2023-06-19T06:34:33;21.40;1.00
21646;DHT22;10984;45.712;4.800;2023-06-19T06:36:59;21.50;1.00
21646;DHT22;10984;45.712;4.800;2023-06-19T06:39:25;21.50;1.00
21646;DHT22;10984;45.712;4.800;2023-06-19T06:41:51;21.50;1.00
21646;DHT22;10984;45.712;4.800;2023-06-19T06:44:17;21.50;1.00
21646;DHT22;10984;45.712;4.800;2023-06-19T06:46:42;21.50;1.00
21646;DHT22;10984;45.712;4.800;2023-06-19T06:49:08;21.50;1.00
21646;DHT22;10984;45.712;4.800;2023-06-19T06:51:34;21.60;1.00
21646;DHT22;10984;45.712;4.800;2023-06-19T06:53:59;21.60;1.00
21646;DHT22;10984;45.712;4.800;2023-06-19T06:56:25;21.70;1.00
21646;DHT22;10984;45.712;4.800;2023-06-19T06:58:51;21.80;1.00
21646;DHT22;10984;45.712;4.800;2023-06-19T07:01:17;22.00;1.00
21646;DHT22;10984;45.712;4.800;2023-06-19T07:03:42;22.10;1.00
21646;DHT22;10984;45.712;4.800;2023-06-19T07:06:08;22.30;1.00
21646;DHT22;10984;45.712;4.800;2023-06-19T07:08:34;22.40;1.00
21646;DHT22;10984;45.712;4.800;2023-06-19T07:11:00;22.60;1.00
21646;DHT22;10984;45.712;4.800;2023-06-19T07:13:25;22.70;1.00
21646;DHT22;10984;45.712;4.800;2023-06-19T07:15:51;22.80;1.00
21646;DHT22;10984;45.712;4.800;2023-06-19T07:18:17;23.00;1.00
21646;DHT22;10984;45.712;4.800;2023-06-19T07:20:42;23.10;1.00
21646;DHT22;10984;45.712;4.800;2023-06-19T07:23:09;23.30;1.00
21646;DHT22;10984;45.712;4.800;2023-06-19T07:25:35;23.40;1.00
21646;DHT22;10984;45.712;4.800;2023-06-19T07:28:01;23.50;1.00
21646;DHT22;10984;45.712;4.800;2023-06-19T07:30:27;23.60;99.90
21646;DHT22;10984;45.712;4.800;2023-06-19T07:32:53;23.80;1.00
21646;DHT22;10984;45.712;4.800;2023-06-19T07:35:18;23.90;99.90
21646;DHT22;10984;45.712;4.800;2023-06-19T07:37:44;24.00;99.90
21646;DHT22;10984;45.712;4.800;2023-06-19T07:40:11;24.10;99.90
21646;DHT22;10984;45.712;4.800;2023-06-19T07:42:37;24.10;99.90
21646;DHT22;10984;45.712;4.800;2023-06-19T07:45:03;24.20;99.90
21646;DHT22;10984;45.712;4.800;2023-06-19T07:47:29;24.20;99.90
21646;DHT22;10984;45.712;4.800;2023-06-19T07:49:55;24.20;99.90
21646;DHT22;10984;45.712;4.800;2023-06-19T07:52:20;24.20;99.90
21646;DHT22;10984;45.712;4.800;2023-06-19T07:55:04;24.20;99.90
21646;DHT22;10984;45.712;4.800;2023-06-19T07:57:30;24.10;99.90
21646;DHT22;10984;45.712;4.800;2023-06-19T07:59:56;24.00;99.90
21646;DHT22;10984;45.712;4.800;2023-06-19T08:02:21;23.90;99.90
21646;DHT22;10984;45.712;4.800;2023-06-19T08:04:47;23.90;99.90
21646;DHT22;10984;45.712;4.800;2023-06-19T08:07:13;23.90;99.90
21646;DHT22;10984;45.712;4.800;2023-06-19T08:09:38;23.80;99.90
21646;DHT22;10984;45.712;4.800;2023-06-19T08:12:05;23.80;99.90
21646;DHT22;10984;45.712;4.800;2023-06-19T08:14:31;23.80;99.90
21646;DHT22;10984;45.712;4.800;2023-06-19T08:16:57;23.70;99.90
21646;DHT22;10984;45.712;4.800;2023-06-19T08:19:22;23.70;99.90
21646;DHT22;10984;45.712;4.800;2023-06-19T08:21:48;23.70;99.90
21646;DHT22;10984;45.712;4.800;2023-06-19T08:24:14;23.80;99.90
21646;DHT22;10984;45.712;4.800;2023-06-19T08:26:39;23.70;99.90
21646;DHT22;10984;45.712;4.800;2023-06-19T08:29:05;23.70;99.90
21646;DHT22;10984;45.712;4.800;2023-06-19T08:31:30;23.80;99.90
21646;DHT22;10984;45.712;4.800;2023-06-19T08:33:56;23.90;99.90
21646;DHT22;10984;45.712;4.800;2023-06-19T08:36:22;23.90;99.90
21646;DHT22;10984;45.712;4.800;2023-06-19T08:38:48;24.00;99.90
21646;DHT22;10984;45.712;4.800;2023-06-19T08:41:18;24.30;99.90
21646;DHT22;10984;45.712;4.800;2023-06-19T08:44:02;24.40;99.90
21646;DHT22;10984;45.712;4.800;2023-06-19T08:46:29;24.60;99.90
21646;DHT22;10984;45.712;4.800;2023-06-19T08:48:55;24.90;99.90
21646;DHT22;10984;45.712;4.800;2023-06-19T08:51:21;25.20;99.90
21646;DHT22;10984;45.712;4.800;2023-06-19T08:56:33;25.30;99.90
21646;DHT22;10984;45.712;4.800;2023-06-19T08:59:17;25.30;99.90
21646;DHT22;10984;45.712;4.800;2023-06-19T09:02:02;25.40;99.90
21646;DHT22;10984;45.712;4.800;2023-06-19T09:04:28;25.60;99.90
21646;DHT22;10984;45.712;4.800;2023-06-19T09:06:59;25.70;99.90
21646;DHT22;10984;45.712;4.800;2023-06-19T09:09:26;25.70;63.10
21646;DHT22;10984;45.712;4.800;2023-06-19T09:12:12;25.90;96.90
21646;DHT22;10984;45.712;4.800;2023-06-19T09:14:39;26.00;61.50
21646;DHT22;10984;45.712;4.800;2023-06-19T09:17:07;26.10;46.10
21646;DHT22;10984;45.712;4.800;2023-06-19T09:19:33;26.10;13.30
21646;DHT22;10984;45.712;4.800;2023-06-19T09:22:20;26.10;1.00
21646;DHT22;10984;45.712;4.800;2023-06-19T09:24:46;26.00;11.10
21646;DHT22;10984;45.712;4.800;2023-06-19T09:27:14;26.00;1.00
21646;DHT22;10984;45.712;4.800;2023-06-19T09:29:42;25.90;1.00
21646;DHT22;10984;45.712;4.800;2023-06-19T09:32:27;25.80;1.00
21646;DHT22;10984;45.712;4.800;2023-06-19T09:34:55;25.90;1.00
21646;DHT22;10984;45.712;4.800;2023-06-19T09:37:28;26.00;1.00
21646;DHT22;10984;45.712;4.800;2023-06-19T09:39:55;26.00;1.00
21646;DHT22;10984;45.712;4.800;2023-06-19T09:42:43;26.10;1.00
21646;DHT22;10984;45.712;4.800;2023-06-19T09:45:12;26.30;1.00
21646;DHT22;10984;45.712;4.800;2023-06-19T09:47:41;26.40;1.00
21646;DHT22;10984;45.712;4.800;2023-06-19T09:50:08;26.60;1.00
21646;DHT22;10984;45.712;4.800;2023-06-19T09:52:36;26.70;1.00
21646;DHT22;10984;45.712;4.800;2023-06-19T09:55:03;26.80;1.00
21646;DHT22;10984;45.712;4.800;2023-06-19T09:57:30;26.80;1.00
21646;DHT22;10984;45.712;4.800;2023-06-19T09:59:57;26.80;1.00
21646;DHT22;10984;45.712;4.800;2023-06-19T10:02:25;26.80;1.00
21646;DHT22;10984;45.712;4.800;2023-06-19T10:04:54;26.90;1.00
21646;DHT22;10984;45.712;4.800;2023-06-19T10:07:41;27.00;1.00
21646;DHT22;10984;45.712;4.800;2023-06-19T10:10:09;27.10;1.00
21646;DHT22;10984;45.712;4.800;2023-06-19T10:12:57;27.20;1.00
21646;DHT22;10984;45.712;4.800;2023-06-19T10:15:25;27.30;1.00
21646;DHT22;10984;45.712;4.800;2023-06-19T10:20:37;27.50;1.00
21646;DHT22;10984;45.712;4.800;2023-06-19T10:23:24;27.60;1.00
21646;DHT22;10984;45.712;4.800;2023-06-19T10:26:15;27.60;1.00
21646;DHT22;10984;45.712;4.800;2023-06-19T10:28:46;27.70;1.00
21646;DHT22;10984;45.712;4.800;2023-06-19T10:31:12;27.70;1.00
21646;DHT22;10984;45.712;4.800;2023-06-19T10:33:38;27.80;1.00
21646;DHT22;10984;45.712;4.800;2023-06-19T10:36:23;27.90;1.00
21646;DHT22;10984;45.712;4.800;2023-06-19T10:38:50;28.00;1.00
21646;DHT22;10984;45.712;4.800;2023-06-19T10:41:17;28.10;1.00
21646;DHT22;10984;45.712;4.800;2023-06-19T10:46:55;28.10;1.00
21646;DHT22;10984;45.712;4.800;2023-06-19T10:49:21;28.10;1.00
21646;DHT22;10984;45.712;4.800;2023-06-19T10:51:48;28.20;1.00
21646;DHT22;10984;45.712;4.800;2023-06-19T10:54:14;28.20;1.00
21646;DHT22;10984;45.712;4.800;2023-06-19T10:56:40;28.40;1.00
21646;DHT22;10984;45.712;4.800;2023-06-19T10:59:08;28.40;1.00
21646;DHT22;10984;45.712;4.800;2023-06-19T11:01:39;28.50;1.00
21646;DHT22;10984;45.712;4.800;2023-06-19T11:04:06;28.60;1.00
21646;DHT22;10984;45.712;4.800;2023-06-19T11:06:33;28.70;1.00
21646;DHT22;10984;45.712;4.800;2023-06-19T11:08:59;28.70;1.00
21646;DHT22;10984;45.712;4.800;2023-06-19T11:11:46;28.80;1.00
21646;DHT22;10984;45.712;4.800;2023-06-19T11:14:14;28.60;1.00
21646;DHT22;10984;45.712;4.800;2023-06-19T11:16:42;28.60;1.00
21646;DHT22;10984;45.712;4.800;2023-06-19T11:19:09;28.60;1.00
21646;DHT22;10984;45.712;4.800;2023-06-19T11:21:36;28.70;1.00
21646;DHT22;10984;45.712;4.800;2023-06-19T11:24:22;28.80;1.00
21646;DHT22;10984;45.712;4.800;2023-06-19T11:26:50;28.80;1.00
21646;DHT22;10984;45.712;4.800;2023-06-19T11:29:34;28.80;1.00
21646;DHT22;10984;45.712;4.800;2023-06-19T11:32:20;28.80;1.00
21646;DHT22;10984;45.712;4.800;2023-06-19T11:34:50;28.80;1.00
21646;DHT22;10984;45.712;4.800;2023-06-19T11:37:18;28.90;1.00
21646;DHT22;10984;45.712;4.800;2023-06-19T11:39:47;29.00;1.00
21646;DHT22;10984;45.712;4.800;2023-06-19T11:42:14;29.00;1.00
21646;DHT22;10984;45.712;4.800;2023-06-19T11:47:44;29.00;99.90
21646;DHT22;10984;45.712;4.800;2023-06-19T11:50:11;29.00;99.90
21646;DHT22;10984;45.712;4.800;2023-06-19T11:52:37;29.00;99.90
21646;DHT22;10984;45.712;4.800;2023-06-19T11:55:02;29.10;99.90
21646;DHT22;10984;45.712;4.800;2023-06-19T11:57:28;29.10;99.90
21646;DHT22;10984;45.712;4.800;2023-06-19T11:59:54;29.10;99.90
21646;DHT22;10984;45.712;4.800;2023-06-19T12:02:20;29.10;99.90
21646;DHT22;10984;45.712;4.800;2023-06-19T12:04:46;29.10;99.90
21646;DHT22;10984;45.712;4.800;2023-06-19T12:07:11;29.20;99.90
21646;DHT22;10984;45.712;4.800;2023-06-19T12:09:37;29.30;99.90
21646;DHT22;10984;45.712;4.800;2023-06-19T12:12:05;29.30;99.90
21646;DHT22;10984;45.712;4.800;2023-06-19T12:14:31;29.40;99.90
21646;DHT22;10984;45.712;4.800;2023-06-19T12:16:56;29.40;99.50
21646;DHT22;10984;45.712;4.800;2023-06-19T12:19:22;29.20;99.90
21646;DHT22;10984;45.712;4.800;2023-06-19T12:21:48;29.10;1.00
21646;DHT22;10984;45.712;4.800;2023-06-19T12:24:13;28.80;1.00
21646;DHT22;10984;45.712;4.800;2023-06-19T12:26:39;28.80;1.00
21646;DHT22;10984;45.712;4.800;2023-06-19T12:29:06;28.90;1.00
21646;DHT22;10984;45.712;4.800;2023-06-19T12:31:33;29.10;1.00
21646;DHT22;10984;45.712;4.800;2023-06-19T12:33:59;29.20;1.00
21646;DHT22;10984;45.712;4.800;2023-06-19T12:36:27;29.40;1.00
21646;DHT22;10984;45.712;4.800;2023-06-19T12:38:53;29.40;1.00
21646;DHT22;10984;45.712;4.800;2023-06-19T12:41:20;29.50;1.00
21646;DHT22;10984;45.712;4.800;2023-06-19T12:43:46;29.50;1.00
21646;DHT22;10984;45.712;4.800;2023-06-19T12:46:12;29.50;1.00
21646;DHT22;10984;45.712;4.800;2023-06-19T12:48:38;29.50;1.00
21646;DHT22;10984;45.712;4.800;2023-06-19T12:51:04;29.60;1.00
21646;DHT22;10984;45.712;4.800;2023-06-19T12:53:29;29.70;1.00
21646;DHT22;10984;45.712;4.800;2023-06-19T12:56:14;29.70;1.00
21646;DHT22;10984;45.712;4.800;2023-06-19T12:58:39;29.70;1.00
21646;DHT22;10984;45.712;4.800;2023-06-19T13:01:05;29.70;99.90
21646;DHT22;10984;45.712;4.800;2023-06-19T13:03:31;29.70;99.90
21646;DHT22;10984;45.712;4.800;2023-06-19T13:05:57;29.70;99.90
21646;DHT22;10984;45.712;4.800;2023-06-19T13:08:22;29.60;99.90
21646;DHT22;10984;45.712;4.800;2023-06-19T13:10:48;29.60;99.90
21646;DHT22;10984;45.712;4.800;2023-06-19T13:13:14;29.60;99.90
21646;DHT22;10984;45.712;4.800;2023-06-19T13:15:39;29.40;99.90
21646;DHT22;10984;45.712;4.800;2023-06-19T13:18:05;29.30;99.90
21646;DHT22;10984;45.712;4.800;2023-06-19T13:20:31;29.30;99.90
21646;DHT22;10984;45.712;4.800;2023-06-19T13:22:57;29.10;99.90
21646;DHT22;10984;45.712;4.800;2023-06-19T13:25:23;28.90;99.90
21646;DHT22;10984;45.712;4.800;2023-06-19T13:27:48;28.80;99.90
21646;DHT22;10984;45.712;4.800;2023-06-19T13:30:14;28.80;99.90
21646;DHT22;10984;45.712;4.800;2023-06-19T13:32:40;28.80;99.90
21646;DHT22;10984;45.712;4.800;2023-06-19T13:35:06;28.80;1.00
21646;DHT22;10984;45.712;4.800;2023-06-19T13:37:34;28.80;1.00
21646;DHT22;10984;45.712;4.800;2023-06-19T13:40:00;28.90;23.50
21646;DHT22;10984;45.712;4.800;2023-06-19T13:42:28;29.00;15.50
21646;DHT22;10984;45.712;4.800;2023-06-19T13:44:54;29.10;65.90
21646;DHT22;10984;45.712;4.800;2023-06-19T13:47:20;29.20;19.50
21646;DHT22;10984;45.712;4.800;2023-06-19T13:49:46;29.30;1.00
21646;DHT22;10984;45.712;4.800;2023-06-19T13:52:11;29.30;1.00
21646;DHT22;10984;45.712;4.800;2023-06-19T13:54:37;29.40;1.00
21646;DHT22;10984;45.712;4.800;2023-06-19T13:57:03;29.40;1.00
21646;DHT22;10984;45.712;4.800;2023-06-19T13:59:29;29.40;1.00
21646;DHT22;10984;45.712;4.800;2023-06-19T14:01:55;29.20;1.00
21646;DHT22;10984;45.712;4.800;2023-06-19T14:04:20;29.20;1.00
21646;DHT22;10984;45.712;4.800;2023-06-19T14:06:46;29.20;1.00
21646;DHT22;10984;45.712;4.800;2023-06-19T14:09:12;29.20;52.30
21646;DHT22;10984;45.712;4.800;2023-06-19T14:11:38;29.10;17.90
21646;DHT22;10984;45.712;4.800;2023-06-19T14:14:03;29.10;99.90
21646;DHT22;10984;45.712;4.800;2023-06-19T14:16:29;29.00;56.80
21646;DHT22;10984;45.712;4.800;2023-06-19T14:18:54;28.90;88.40
21646;DHT22;10984;45.712;4.800;2023-06-19T14:21:20;28.90;99.90
21646;DHT22;10984;45.712;4.800;2023-06-19T14:23:47;28.80;91.90
21646;DHT22;10984;45.712;4.800;2023-06-19T14:26:12;28.70;99.90
21646;DHT22;10984;45.712;4.800;2023-06-19T14:28:38;28.80;99.90
21646;DHT22;10984;45.712;4.800;2023-06-19T14:31:07;28.90;99.90
21646;DHT22;10984;45.712;4.800;2023-06-19T14:33:33;29.00;99.90
21646;DHT22;10984;45.712;4.800;2023-06-19T14:36:00;29.10;99.90
21646;DHT22;10984;45.712;4.800;2023-06-19T14:38:28;29.30;99.90
21646;DHT22;10984;45.712;4.800;2023-06-19T14:40:57;29.30;99.90
21646;DHT22;10984;45.712;4.800;2023-06-19T14:43:24;29.30;99.90
21646;DHT22;10984;45.712;4.800;2023-06-19T14:45:49;29.30;99.90
21646;DHT22;10984;45.712;4.800;2023-06-19T14:48:15;29.30;99.90
21646;DHT22;10984;45.712;4.800;2023-06-19T14:50:41;29.30;99.90
21646;DHT22;10984;45.712;4.800;2023-06-19T14:53:07;29.30;99.90
21646;DHT22;10984;45.712;4.800;2023-06-19T14:55:32;29.30;99.90
21646;DHT22;10984;45.712;4.800;2023-06-19T14:57:58;29.40;99.90
21646;DHT22;10984;45.712;4.800;2023-06-19T15:00:23;29.40;99.90
21646;DHT22;10984;45.712;4.800;2023-06-19T15:02:49;29.40;99.90
21646;DHT22;10984;45.712;4.800;2023-06-19T15:05:15;29.40;99.90
21646;DHT22;10984;45.712;4.800;2023-06-19T15:07:41;29.30;99.90
21646;DHT22;10984;45.712;4.800;2023-06-19T15:10:07;29.30;99.90
21646;DHT22;10984;45.712;4.800;2023-06-19T15:12:32;29.20;99.90
21646;DHT22;10984;45.712;4.800;2023-06-19T15:15:00;29.00;99.90
21646;DHT22;10984;45.712;4.800;2023-06-19T15:17:25;28.90;99.90
21646;DHT22;10984;45.712;4.800;2023-06-19T15:19:51;28.80;99.90
21646;DHT22;10984;45.712;4.800;2023-06-19T15:22:17;28.80;99.90
21646;DHT22;10984;45.712;4.800;2023-06-19T15:24:42;28.80;99.90
21646;DHT22;10984;45.712;4.800;2023-06-19T15:27:08;28.70;99.90
21646;DHT22;10984;45.712;4.800;2023-06-19T15:29:33;28.70;99.90
21646;DHT22;10984;45.712;4.800;2023-06-19T15:31:59;28.70;99.90
21646;DHT22;10984;45.712;4.800;2023-06-19T15:34:25;28.70;99.90
21646;DHT22;10984;45.712;4.800;2023-06-19T15:36:50;28.70;99.90
21646;DHT22;10984;45.712;4.800;2023-06-19T15:39:16;28.70;99.90
21646;DHT22;10984;45.712;4.800;2023-06-19T15:41:44;28.70;99.90
21646;DHT22;10984;45.712;4.800;2023-06-19T15:44:14;28.80;99.90
21646;DHT22;10984;45.712;4.800;2023-06-19T15:46:40;28.80;99.90
21646;DHT22;10984;45.712;4.800;2023-06-19T15:49:05;28.80;99.90
21646;DHT22;10984;45.712;4.800;2023-06-19T15:51:31;28.80;99.90
21646;DHT22;10984;45.712;4.800;2023-06-19T15:53:56;28.70;99.90
21646;DHT22;10984;45.712;4.800;2023-06-19T15:56:22;28.80;99.90
21646;DHT22;10984;45.712;4.800;2023-06-19T15:58:48;28.70;34.60
21646;DHT22;10984;45.712;4.800;2023-06-19T16:01:16;28.60;8.70
21646;DHT22;10984;45.712;4.800;2023-06-19T16:03:42;28.60;99.90